Time;durP1;ratioP1;P1;durP2;ratioP2;P2;SDS_P1;SDS_P2;PMS_P1;PMS_P2;Temp;Humidity;BMP_temperature;BMP_pressure;BME280_temperature;BME280_humidity;BME280_pressure;Samples;Min_cycle;Max_cycle;Signal;HPM_P1;HPM_P2
2021/12/27 00:00:14;;;;;;;;;;;;;;;14.71;94.29;99795.00;5032327;28;20019;-57
2021/12/27 00:02:41;;;;;;;;;;;;;;;14.72;94.21;99795.84;5032105;28;20381;-57
2021/12/27 00:05:09;;;;;;;;;;;;;;;14.72;94.09;99785.41;5032585;28;19921;-57
2021/12/27 00:07:36;;;;;;;;;;;;;;;14.71;94.01;99780.97;5040161;28;20020;-56
2021/12/27 00:10:03;;;;;;;;;;;;;;;14.71;94.14;99797.81;5049208;28;19956;-58
2021/12/27 00:12:32;;;;;;;;;;;;;;;14.69;93.73;99795.31;5047542;28;20007;-58
2021/12/27 00:14:58;;;;;;;;;;;;;;;14.68;94.07;99802.09;5050783;28;20420;-56
2021/12/27 00:17:25;;;;;;;;;;;;;;;14.69;94.10;99809.38;5051952;28;19963;-57
2021/12/27 00:19:52;;;;;;;;;;;;;;;14.68;94.03;99815.31;5052008;28;19970;-57
2021/12/27 00:22:18;;;;;;;;;;;;;;;14.71;93.88;99819.47;5051772;28;20608;-58
2021/12/27 00:24:47;;;;;;;;;;;;;;;14.70;93.88;99813.03;5046823;28;20035;-57
2021/12/27 00:27:15;;;;;;;;;;;;;;;14.72;94.10;99827.56;5032501;28;20375;-58
2021/12/27 00:29:41;;;;;;;;;;;;;;;14.71;94.05;99828.72;5031769;28;20005;-58
2021/12/27 00:32:08;;;;;;;;;;;;;;;14.70;93.95;99843.94;5031856;28;20086;-58
2021/12/27 00:34:38;;;;;;;;;;;;;;;14.69;93.94;99836.66;5031902;28;19975;-58
2021/12/27 00:37:05;;;;;;;;;;;;;;;14.69;93.78;99826.22;5032172;28;20011;-58
2021/12/27 00:39:32;;;;;;;;;;;;;;;14.70;93.98;99838.31;5032149;28;20035;-58
2021/12/27 00:42:03;;;;;;;;;;;;;;;14.70;93.67;99835.53;5031831;28;19931;-57
2021/12/27 00:44:30;;;;;;;;;;;;;;;14.71;93.94;99845.59;5032689;28;20329;-58
2021/12/27 00:46:57;;;;;;;;;;;;;;;14.73;93.68;99848.88;5031798;28;19971;-56
2021/12/27 00:49:24;;;;;;;;;;;;;;;14.73;94.06;99851.69;5032180;28;19928;-57
2021/12/27 00:51:51;;;;;;;;;;;;;;;14.74;93.79;99863.78;5031864;28;19921;-58
2021/12/27 00:54:17;;;;;;;;;;;;;;;14.75;93.54;99857.84;5031530;28;19928;-57
2021/12/27 00:56:45;;;;;;;;;;;;;;;14.74;93.86;99855.38;5032041;28;20004;-57
2021/12/27 00:59:11;;;;;;;;;;;;;;;14.74;94.10;99847.75;5032256;28;19990;-57
2021/12/27 01:01:38;;;;;;;;;;;;;;;14.75;93.87;99849.41;5034371;28;20015;-56
2021/12/27 01:04:05;;;;;;;;;;;;;;;14.77;93.81;99872.41;5035831;28;19925;-58
2021/12/27 01:06:32;;;;;;;;;;;;;;;14.78;93.64;99854.38;5035560;28;19968;-56
2021/12/27 01:08:59;;;;;;;;;;;;;;;14.76;93.74;99856.66;5035467;28;19936;-58
2021/12/27 01:11:41;;;;;;;;;;;;;;;14.76;93.72;99844.59;5035840;28;19921;-57
2021/12/27 01:14:14;;;;;;;;;;;;;;;14.74;93.87;99850.56;5035559;28;19921;-57
2021/12/27 01:16:43;;;;;;;;;;;;;;;14.74;93.68;99847.75;5046753;28;19935;-56
2021/12/27 01:19:10;;;;;;;;;;;;;;;14.75;93.83;99868.25;5053868;28;20011;-57
2021/12/27 01:21:36;;;;;;;;;;;;;;;14.74;93.73;99870.25;5041351;28;20007;-57
2021/12/27 01:24:04;;;;;;;;;;;;;;;14.73;93.57;99862.13;5055552;28;20308;-57
2021/12/27 01:26:32;;;;;;;;;;;;;;;14.74;93.79;99864.63;5055097;28;20023;-57
2021/12/27 01:29:00;;;;;;;;;;;;;;;14.74;93.81;99867.44;5052543;28;20047;-57
2021/12/27 01:31:28;;;;;;;;;;;;;;;14.75;93.52;99871.88;5035158;28;20015;-56
2021/12/27 01:33:54;;;;;;;;;;;;;;;14.75;93.77;99857.84;5035465;28;19932;-56
2021/12/27 01:36:21;;;;;;;;;;;;;;;14.73;93.61;99860.13;5035918;28;20282;-56
2021/12/27 01:38:48;;;;;;;;;;;;;;;14.73;93.47;99834.84;5034849;28;20031;-56
2021/12/27 01:41:16;;;;;;;;;;;;;;;14.73;93.61;99840.47;5035157;28;19924;-56
2021/12/27 01:43:43;;;;;;;;;;;;;;;14.74;93.91;99847.75;5035236;28;20028;-57
2021/12/27 01:46:12;;;;;;;;;;;;;;;14.75;93.69;99854.19;5035038;28;20008;-56
2021/12/27 01:48:40;;;;;;;;;;;;;;;14.74;93.49;99849.75;5034617;28;20380;-56
2021/12/27 01:51:11;;;;;;;;;;;;;;;14.74;93.58;99864.63;5034529;28;19921;-55
2021/12/27 01:53:39;;;;;;;;;;;;;;;14.75;93.65;99866.28;5035326;28;19975;-56
2021/12/27 01:56:07;;;;;;;;;;;;;;;14.74;93.47;99887.09;5034708;28;19921;-56
2021/12/27 01:58:34;;;;;;;;;;;;;;;14.72;93.31;99906.25;5034624;28;20025;-55
2021/12/27 02:01:02;;;;;;;;;;;;;;;14.69;93.52;99902.09;5034898;28;20368;-57
2021/12/27 02:03:31;;;;;;;;;;;;;;;14.69;93.34;99913.34;5035427;28;20001;-55
2021/12/27 02:06:05;;;;;;;;;;;;;;;14.70;93.38;99928.25;5054352;28;19928;-57
2021/12/27 02:08:32;;;;;;;;;;;;;;;14.73;93.65;99930.41;5051409;28;20479;-55
2021/12/27 02:10:59;;;;;;;;;;;;;;;14.73;93.60;99927.59;5034116;28;20024;-56
2021/12/27 02:13:25;;;;;;;;;;;;;;;14.73;93.55;99921.97;5034344;28;20003;-56
2021/12/27 02:15:52;;;;;;;;;;;;;;;14.73;93.28;99923.94;5034669;28;20016;-55
2021/12/27 02:18:19;;;;;;;;;;;;;;;14.73;93.55;99919.16;5033780;28;19931;-57
2021/12/27 02:20:46;;;;;;;;;;;;;;;14.73;93.18;99913.53;5040549;28;19920;-57
2021/12/27 02:23:17;;;;;;;;;;;;;;;14.70;93.52;99911.41;5054009;28;20019;-55
2021/12/27 02:25:45;;;;;;;;;;;;;;;14.68;93.25;99913.69;5041468;28;20027;-55
2021/12/27 02:28:12;;;;;;;;;;;;;;;14.68;93.67;99928.56;5033753;28;20004;-55
2021/12/27 02:30:41;;;;;;;;;;;;;;;14.68;93.53;99922.94;5033628;28;19932;-54
2021/12/27 02:33:09;;;;;;;;;;;;;;;14.69;93.21;99918.16;5033946;28;19975;-53
2021/12/27 02:35:38;;;;;;;;;;;;;;;14.69;93.35;99921.78;5033827;28;19961;-55
2021/12/27 02:38:06;;;;;;;;;;;;;;;14.70;93.75;99914.22;5033730;28;20020;-54
2021/12/27 02:40:33;;;;;;;;;;;;;;;14.69;93.57;99912.53;5033716;28;19927;-54
2021/12/27 02:42:59;;;;;;;;;;;;;;;14.69;93.55;99918.16;5048238;28;19928;-54
2021/12/27 02:45:27;;;;;;;;;;;;;;;14.67;93.39;99906.41;5033850;28;20028;-55
2021/12/27 02:47:54;;;;;;;;;;;;;;;14.65;93.39;99906.72;5033692;28;19925;-56
2021/12/27 02:50:21;;;;;;;;;;;;;;;14.64;93.37;99916.31;5033704;28;20083;-55
2021/12/27 02:52:49;;;;;;;;;;;;;;;14.64;93.42;99912.69;5065034;28;19963;-56
2021/12/27 02:55:16;;;;;;;;;;;;;;;14.64;93.42;99933.19;5033604;28;19921;-56
2021/12/27 02:57:44;;;;;;;;;;;;;;;14.65;93.48;99936.81;5034092;28;20111;-56
2021/12/27 03:00:32;;;;;;;;;;;;;;;14.66;93.35;99918.78;5034015;28;20014;-54
2021/12/27 03:02:59;;;;;;;;;;;;;;;14.67;93.40;99915.69;5033836;28;20337;-55
2021/12/27 03:05:27;;;;;;;;;;;;;;;14.64;93.33;99930.38;5033357;28;19936;-54
2021/12/27 03:07:54;;;;;;;;;;;;;;;14.63;93.29;99930.69;5033376;28;20039;-56
2021/12/27 03:10:24;;;;;;;;;;;;;;;14.60;93.25;99932.19;5033437;28;20007;-53
2021/12/27 03:12:55;;;;;;;;;;;;;;;14.58;93.21;99944.88;5064197;28;19960;-53
2021/12/27 03:15:23;;;;;;;;;;;;;;;14.55;93.00;99957.59;5033317;28;20015;-54
2021/12/27 03:17:51;;;;;;;;;;;;;;;14.52;93.17;99963.84;5033584;28;19921;-56
2021/12/27 03:20:19;;;;;;;;;;;;;;;14.52;92.99;99961.03;5032977;28;20015;-55
2021/12/27 03:22:46;;;;;;;;;;;;;;;14.52;93.10;99963.84;5032190;28;20365;-55
2021/12/27 03:25:15;;;;;;;;;;;;;;;14.51;93.18;99972.59;5033849;28;20028;-55
2021/12/27 03:27:42;;;;;;;;;;;;;;;14.50;93.08;99977.41;5052588;28;20023;-56
2021/12/27 03:30:11;;;;;;;;;;;;;;;14.49;92.88;99980.47;5051450;28;20031;-55
2021/12/27 03:32:37;;;;;;;;;;;;;;;14.48;93.06;99987.25;5052645;28;20019;-56
2021/12/27 03:35:11;;;;;;;;;;;;;;;14.48;93.14;99985.28;5051955;28;20372;-55
2021/12/27 03:37:39;;;;;;;;;;;;;;;14.44;92.82;99982.28;5033000;28;20024;-56
2021/12/27 03:40:08;;;;;;;;;;;;;;;14.40;92.84;99972.84;5032632;28;20019;-56
2021/12/27 03:42:34;;;;;;;;;;;;;;;14.39;93.00;99974.00;5032486;28;19961;-55
2021/12/27 03:45:01;;;;;;;;;;;;;;;14.41;92.95;99973.66;5034567;28;20011;-56
2021/12/27 03:47:28;;;;;;;;;;;;;;;14.39;93.18;99976.81;5052286;28;19921;-55
2021/12/27 03:49:55;;;;;;;;;;;;;;;14.40;93.20;99986.06;5052314;28;19928;-57
2021/12/27 03:52:21;;;;;;;;;;;;;;;14.38;93.15;100008.84;5050468;28;20016;-56
2021/12/27 03:54:48;;;;;;;;;;;;;;;14.38;93.22;100014.44;5032517;28;20024;-56
2021/12/27 03:57:16;;;;;;;;;;;;;;;14.36;92.88;100022.38;5032763;28;20011;-55
2021/12/27 04:02:10;;;;;;;;;;;;;;;14.29;92.81;100027.63;5032765;28;19921;-54
2021/12/27 04:04:38;;;;;;;;;;;;;;;14.26;92.89;100025.44;5045140;28;20474;-55
2021/12/27 04:07:07;;;;;;;;;;;;;;;14.27;92.98;100029.09;5051992;28;20043;-53
2021/12/27 04:09:34;;;;;;;;;;;;;;;14.28;93.02;100028.75;5042009;28;20015;-55
2021/12/27 04:12:01;;;;;;;;;;;;;;;14.31;93.06;100027.28;5032260;28;19953;-54
2021/12/27 04:14:27;;;;;;;;;;;;;;;14.33;93.38;100039.88;5032162;28;20012;-55
2021/12/27 04:16:54;;;;;;;;;;;;;;;14.36;93.21;100032.81;5032145;28;19921;-55
2021/12/27 04:19:21;;;;;;;;;;;;;;;14.38;93.30;100030.47;5032593;28;19925;-55
2021/12/27 04:21:47;;;;;;;;;;;;;;;14.37;93.17;100035.28;5032438;28;20028;-54
2021/12/27 04:24:14;;;;;;;;;;;;;;;14.34;92.82;100041.53;5033362;28;20015;-55
2021/12/27 04:26:41;;;;;;;;;;;;;;;14.34;93.40;100051.94;5032477;28;19921;-55
2021/12/27 04:29:08;;;;;;;;;;;;;;;14.33;93.22;100048.31;5032326;28;20332;-56
2021/12/27 04:31:35;;;;;;;;;;;;;;;14.34;93.06;100046.31;5041691;28;20019;-54
2021/12/27 04:34:02;;;;;;;;;;;;;;;14.31;93.00;100053.41;5053400;28;20380;-56
2021/12/27 04:36:28;;;;;;;;;;;;;;;14.30;93.37;100050.91;5058477;28;19943;-54
2021/12/27 04:38:55;;;;;;;;;;;;;;;14.30;93.21;100040.50;5058481;28;20035;-56
2021/12/27 04:41:22;;;;;;;;;;;;;;;14.30;93.29;100045.31;5043220;28;20368;-52
2021/12/27 04:43:49;;;;;;;;;;;;;;;14.27;93.07;100058.00;5038072;28;20364;-55
2021/12/27 04:46:16;;;;;;;;;;;;;;;14.28;93.11;100070.88;5038767;28;19921;-57
2021/12/27 04:48:43;;;;;;;;;;;;;;;14.27;93.20;100057.16;5038774;28;20015;-57
2021/12/27 04:51:10;;;;;;;;;;;;;;;14.26;92.98;100061.97;5048428;28;20015;-58
2021/12/27 04:53:36;;;;;;;;;;;;;;;14.23;93.01;100062.59;5058330;28;20455;-57
2021/12/27 04:56:03;;;;;;;;;;;;;;;14.22;93.13;100060.91;5058483;28;20015;-57
2021/12/27 04:58:30;;;;;;;;;;;;;;;14.20;92.55;100057.59;5053139;28;20032;-60
2021/12/27 05:00:56;;;;;;;;;;;;;;;14.16;92.87;100050.97;5038563;28;19975;-58
2021/12/27 05:03:23;;;;;;;;;;;;;;;14.15;92.66;100057.72;5038723;28;20070;-58
2021/12/27 05:05:50;;;;;;;;;;;;;;;14.16;92.92;100067.81;5038398;28;20338;-57
2021/12/27 05:08:17;;;;;;;;;;;;;;;14.15;92.85;100066.13;5038557;28;20015;-57
2021/12/27 05:10:44;;;;;;;;;;;;;;;14.10;92.67;100074.69;5038191;28;19968;-57
2021/12/27 05:13:11;;;;;;;;;;;;;;;14.10;92.96;100086.75;5038429;28;19921;-57
2021/12/27 05:15:38;;;;;;;;;;;;;;;14.09;92.81;100078.66;5038573;28;20007;-58
2021/12/27 05:18:04;;;;;;;;;;;;;;;14.12;92.73;100094.84;5038240;28;20060;-58
2021/12/27 05:20:31;;;;;;;;;;;;;;;14.12;92.82;100095.69;5038344;28;20004;-58
2021/12/27 05:22:58;;;;;;;;;;;;;;;14.10;92.71;100083.94;5038100;28;19921;-58
2021/12/27 05:25:24;;;;;;;;;;;;;;;14.07;92.73;100081.75;5049601;28;19964;-57
2021/12/27 05:27:51;;;;;;;;;;;;;;;14.07;92.90;100092.16;5043587;28;20451;-58
2021/12/27 05:30:18;;;;;;;;;;;;;;;14.06;92.56;100096.13;5038734;28;20305;-57
2021/12/27 05:32:45;;;;;;;;;;;;;;;14.06;92.65;100090.50;5039947;28;20115;-57
2021/12/27 05:35:13;;;;;;;;;;;;;;;14.10;92.65;100097.16;5038108;28;20024;-58
2021/12/27 05:37:41;;;;;;;;;;;;;;;14.09;92.83;100107.56;5057025;28;19928;-57
2021/12/27 05:40:09;;;;;;;;;;;;;;;14.09;92.76;100107.56;5057937;28;20011;-57
2021/12/27 05:42:36;;;;;;;;;;;;;;;14.08;92.63;100116.28;5058110;28;20436;-57
2021/12/27 05:45:04;;;;;;;;;;;;;;;14.09;92.80;100112.34;5040016;28;20011;-57
2021/12/27 05:47:31;;;;;;;;;;;;;;;14.06;92.34;100119.41;5065830;28;19921;-57
2021/12/27 05:49:57;;;;;;;;;;;;;;;14.04;92.45;100110.47;5046683;28;20373;-57
2021/12/27 05:52:24;;;;;;;;;;;;;;;14.03;92.60;100114.44;5054799;28;19963;-57
2021/12/27 05:54:51;;;;;;;;;;;;;;;14.03;92.63;100091.13;5054766;28;19920;-57
2021/12/27 05:57:19;;;;;;;;;;;;;;;14.05;92.79;100095.31;5034849;28;20027;-57
2021/12/27 05:59:46;;;;;;;;;;;;;;;14.08;92.72;100110.66;5034643;28;20361;-57
2021/12/27 06:02:14;;;;;;;;;;;;;;;14.08;92.62;100116.28;5034923;28;20004;-56
2021/12/27 06:04:41;;;;;;;;;;;;;;;14.09;92.67;100124.41;5034469;28;19928;-58
2021/12/27 06:07:07;;;;;;;;;;;;;;;14.12;92.52;100129.41;5034919;28;20031;-56
2021/12/27 06:09:34;;;;;;;;;;;;;;;14.15;92.80;100139.13;5034514;28;20335;-56
2021/12/27 06:12:01;;;;;;;;;;;;;;;14.16;92.57;100138.03;5034432;28;19921;-57
2021/12/27 06:14:27;;;;;;;;;;;;;;;14.17;92.71;100156.53;5034738;28;20007;-56
2021/12/27 06:16:54;;;;;;;;;;;;;;;14.17;92.59;100153.72;5034368;28;19921;-56
2021/12/27 06:19:21;;;;;;;;;;;;;;;14.18;92.59;100146.94;5034690;28;19980;-57
2021/12/27 06:21:48;;;;;;;;;;;;;;;14.18;92.69;100144.13;5034114;28;20019;-60
2021/12/27 06:24:15;;;;;;;;;;;;;;;14.15;92.53;100141.94;5036499;28;20210;-57
2021/12/27 06:26:42;;;;;;;;;;;;;;;14.12;92.38;100146.25;5038364;28;19921;-55
2021/12/27 06:29:09;;;;;;;;;;;;;;;14.12;92.42;100125.72;5034126;28;19978;-56
2021/12/27 06:31:36;;;;;;;;;;;;;;;14.10;92.42;100125.22;5034374;28;20008;-56
2021/12/27 06:34:02;;;;;;;;;;;;;;;14.09;92.36;100123.56;5034064;28;20130;-57
2021/12/27 06:36:30;;;;;;;;;;;;;;;14.07;92.29;100128.66;5033892;28;20008;-56
2021/12/27 06:38:56;;;;;;;;;;;;;;;14.06;92.37;100129.81;5034138;28;19948;-57
2021/12/27 06:41:24;;;;;;;;;;;;;;;14.06;92.55;100157.91;5040769;28;19927;-57
2021/12/27 06:43:52;;;;;;;;;;;;;;;14.07;92.57;100170.78;5050115;28;19921;-57
2021/12/27 06:46:19;;;;;;;;;;;;;;;14.07;92.64;100171.59;5033913;28;20345;-57
2021/12/27 06:48:45;;;;;;;;;;;;;;;14.07;92.63;100170.78;5033814;28;19928;-57
2021/12/27 06:51:13;;;;;;;;;;;;;;;14.04;92.18;100169.41;5033997;28;20020;-57
2021/12/27 06:53:39;;;;;;;;;;;;;;;14.02;92.36;100157.69;5033732;28;20012;-57
2021/12/27 06:56:06;;;;;;;;;;;;;;;14.00;92.22;100162.78;5034048;28;20297;-57
2021/12/27 06:58:33;;;;;;;;;;;;;;;14.01;92.08;100166.41;5033217;28;20004;-57
2021/12/27 07:00:59;;;;;;;;;;;;;;;14.00;92.06;100174.00;5033683;28;20416;-57
2021/12/27 07:03:26;;;;;;;;;;;;;;;14.03;92.19;100158.53;5033890;28;20032;-56
2021/12/27 07:05:54;;;;;;;;;;;;;;;14.07;92.54;100168.81;5033415;28;19975;-56
2021/12/27 07:08:22;;;;;;;;;;;;;;;14.10;92.50;100170.97;5033373;28;20008;-57
2021/12/27 07:10:49;;;;;;;;;;;;;;;14.13;92.39;100183.56;5033327;28;19921;-57
2021/12/27 07:13:16;;;;;;;;;;;;;;;14.18;92.55;100175.84;5044610;28;19983;-57
2021/12/27 07:15:44;;;;;;;;;;;;;;;14.21;92.62;100183.66;5052660;28;20300;-56
2021/12/27 07:18:12;;;;;;;;;;;;;;;14.25;92.59;100188.66;5034394;28;19921;-55
2021/12/27 07:20:40;;;;;;;;;;;;;;;14.25;92.62;100183.84;5033256;28;20015;-57
2021/12/27 07:23:07;;;;;;;;;;;;;;;14.23;92.73;100178.56;5033195;28;20424;-56
2021/12/27 07:25:34;;;;;;;;;;;;;;;14.20;92.48;100198.84;5033248;28;20015;-56
2021/12/27 07:28:01;;;;;;;;;;;;;;;14.14;92.28;100188.03;5032829;28;20011;-55
2021/12/27 07:30:30;;;;;;;;;;;;;;;14.08;92.13;100192.91;5033201;28;20015;-56
2021/12/27 07:32:58;;;;;;;;;;;;;;;14.04;92.20;100193.88;5033356;28;20015;-57
2021/12/27 07:35:25;;;;;;;;;;;;;;;14.01;92.17;100183.25;5032997;28;20401;-56
2021/12/27 07:37:52;;;;;;;;;;;;;;;13.98;92.09;100185.56;5033095;28;20004;-56
2021/12/27 07:40:23;;;;;;;;;;;;;;;13.97;92.03;100177.44;5032889;28;19921;-55
2021/12/27 07:42:50;;;;;;;;;;;;;;;13.97;92.27;100172.66;5032651;28;19921;-55
2021/12/27 07:45:16;;;;;;;;;;;;;;;13.98;92.09;100171.53;5032459;28;20403;-55
2021/12/27 07:47:43;;;;;;;;;;;;;;;14.01;92.33;100200.09;5050816;28;19931;-54
2021/12/27 07:50:10;;;;;;;;;;;;;;;14.01;92.21;100194.47;5038975;28;20325;-54
2021/12/27 07:52:36;;;;;;;;;;;;;;;13.99;92.21;100204.06;5032144;28;19990;-56
2021/12/27 07:55:04;;;;;;;;;;;;;;;14.02;92.29;100202.63;5032494;28;19928;-55
2021/12/27 07:57:31;;;;;;;;;;;;;;;14.02;92.24;100204.56;5032912;28;20016;-55
2021/12/27 08:00:00;;;;;;;;;;;;;;;14.01;92.31;100195.31;5032454;28;19921;-55
2021/12/27 08:02:29;;;;;;;;;;;;;;;14.04;92.59;100205.91;5032721;28;20017;-55
2021/12/27 08:04:56;;;;;;;;;;;;;;;14.07;92.52;100212.91;5032206;28;20003;-54
2021/12/27 08:07:23;;;;;;;;;;;;;;;14.06;92.34;100202.81;5033267;28;20011;-55
2021/12/27 08:09:49;;;;;;;;;;;;;;;14.08;92.29;100200.50;5031830;28;19920;-53
2021/12/27 08:12:16;;;;;;;;;;;;;;;14.08;92.36;100195.72;5032483;28;20008;-56
2021/12/27 08:14:43;;;;;;;;;;;;;;;14.09;92.50;100190.97;5048700;28;19955;-56
2021/12/27 08:17:09;;;;;;;;;;;;;;;14.08;92.54;100194.91;5051912;28;19970;-55
2021/12/27 08:19:36;;;;;;;;;;;;;;;14.08;92.28;100211.75;5052136;28;20015;-57
2021/12/27 08:22:03;;;;;;;;;;;;;;;14.11;92.44;100225.16;5037115;28;20409;-54
2021/12/27 08:24:30;;;;;;;;;;;;;;;14.13;92.88;100236.94;5048089;28;19999;-55
2021/12/27 08:26:57;;;;;;;;;;;;;;;14.16;92.34;100220.28;5039177;28;20007;-55
2021/12/27 08:29:23;;;;;;;;;;;;;;;14.16;92.46;100230.69;5031914;28;20012;-53
2021/12/27 08:31:50;;;;;;;;;;;;;;;14.19;92.46;100244.09;5032222;28;20444;-54
2021/12/27 08:34:19;;;;;;;;;;;;;;;14.21;92.37;100216.53;5038296;28;20015;-55
2021/12/27 08:36:50;;;;;;;;;;;;;;;14.24;92.55;100229.94;5052168;28;20038;-55
2021/12/27 08:39:16;;;;;;;;;;;;;;;14.29;92.40;100229.84;5051796;28;20019;-54
2021/12/27 08:41:44;;;;;;;;;;;;;;;14.33;92.58;100242.13;5031927;28;19924;-53
2021/12/27 08:44:11;;;;;;;;;;;;;;;14.40;92.67;100259.38;5031592;28;20012;-55
2021/12/27 08:46:38;;;;;;;;;;;;;;;14.55;92.90;100268.66;5032051;28;20011;-55
2021/12/27 08:49:06;;;;;;;;;;;;;;;14.76;93.49;100277.47;5031952;28;19921;-55
2021/12/27 08:51:32;;;;;;;;;;;;;;;14.88;93.21;100270.16;5039311;28;20414;-53
2021/12/27 08:53:59;;;;;;;;;;;;;;;14.83;92.54;100275.06;5050331;28;20015;-55
2021/12/27 08:56:31;;;;;;;;;;;;;;;14.73;92.38;100264.03;5051484;28;20038;-53
2021/12/27 08:58:58;;;;;;;;;;;;;;;14.68;92.51;100262.19;5031880;28;20329;-55
2021/12/27 09:01:24;;;;;;;;;;;;;;;14.66;92.31;100265.28;5031813;28;20031;-53
2021/12/27 09:03:51;;;;;;;;;;;;;;;14.72;92.43;100265.19;5031843;28;19927;-53
2021/12/27 09:06:18;;;;;;;;;;;;;;;14.74;92.07;100263.75;5033369;28;20020;-55
2021/12/27 09:08:45;;;;;;;;;;;;;;;14.71;92.11;100266.34;5051813;28;20432;-56
2021/12/27 09:11:11;;;;;;;;;;;;;;;14.67;91.97;100252.09;5051876;28;19920;-54
2021/12/27 09:13:38;;;;;;;;;;;;;;;14.64;91.90;100264.78;5081915;28;20442;-55
2021/12/27 09:16:05;;;;;;;;;;;;;;;14.66;92.25;100242.81;5051684;28;20020;-54
2021/12/27 09:18:33;;;;;;;;;;;;;;;14.71;92.00;100247.50;5041575;28;20012;-54
2021/12/27 09:21:00;;;;;;;;;;;;;;;14.81;92.33;100266.13;5032255;28;20032;-55
2021/12/27 09:23:27;;;;;;;;;;;;;;;14.87;91.98;100279.75;5035576;28;20337;-55
2021/12/27 09:25:54;;;;;;;;;;;;;;;14.87;91.73;100282.56;5035352;28;20337;-55
2021/12/27 09:28:21;;;;;;;;;;;;;;;14.83;91.55;100295.56;5035255;28;19968;-56
2021/12/27 09:30:48;;;;;;;;;;;;;;;14.86;91.82;100300.56;5036137;28;19994;-56
2021/12/27 09:33:15;;;;;;;;;;;;;;;14.88;91.77;100297.44;5035589;28;20332;-53
2021/12/27 09:35:41;;;;;;;;;;;;;;;14.92;91.48;100288.03;5034891;28;19927;-54
2021/12/27 09:38:08;;;;;;;;;;;;;;;14.97;91.51;100275.00;5035408;28;20021;-56
2021/12/27 09:40:35;;;;;;;;;;;;;;;15.00;91.39;100275.22;5035644;28;19989;-56
2021/12/27 09:43:02;;;;;;;;;;;;;;;14.99;91.32;100281.16;5035062;28;19975;-55
2021/12/27 09:45:29;;;;;;;;;;;;;;;14.99;91.10;100298.88;5035037;28;19968;-55
2021/12/27 09:47:57;;;;;;;;;;;;;;;15.08;91.16;100311.03;5035644;28;20284;-54
2021/12/27 09:50:28;;;;;;;;;;;;;;;15.50;92.49;100322.13;5035284;28;20004;-58
2021/12/27 09:52:55;;;;;;;;;;;;;;;15.69;91.90;100320.00;5034780;28;19925;-56
2021/12/27 09:55:23;;;;;;;;;;;;;;;15.97;92.34;100328.28;5035435;28;20332;-56
2021/12/27 09:57:50;;;;;;;;;;;;;;;16.24;91.34;100328.09;5039951;28;19949;-53
2021/12/27 10:00:17;;;;;;;;;;;;;;;16.50;91.95;100324.56;5034870;28;19921;-53
2021/12/27 10:02:43;;;;;;;;;;;;;;;17.00;92.06;100341.16;5034607;28;19928;-55
2021/12/27 10:05:11;;;;;;;;;;;;;;;16.89;90.46;100346.28;5035732;28;20320;-53
2021/12/27 10:07:41;;;;;;;;;;;;;;;16.63;89.97;100350.97;5034586;28;19976;-54
2021/12/27 10:10:16;;;;;;;;;;;;;;;16.44;89.77;100352.03;5035008;28;19925;-54
2021/12/27 10:12:43;;;;;;;;;;;;;;;16.22;89.27;100349.31;5036407;28;19921;-53
2021/12/27 10:15:12;;;;;;;;;;;;;;;16.20;89.49;100338.34;5034493;28;20334;-55
2021/12/27 10:17:42;;;;;;;;;;;;;;;16.25;89.46;100343.03;5034527;28;19971;-55
2021/12/27 10:20:17;;;;;;;;;;;;;;;16.41;89.04;100346.22;5034804;28;20331;-55
2021/12/27 10:22:45;;;;;;;;;;;;;;;16.25;88.76;100348.66;5045865;28;20340;-56
2021/12/27 10:25:14;;;;;;;;;;;;;;;16.10;88.97;100355.50;5054280;28;19976;-52
2021/12/27 10:27:41;;;;;;;;;;;;;;;15.93;87.54;100358.22;5052393;28;19979;-52
2021/12/27 10:30:12;;;;;;;;;;;;;;;15.88;89.28;100342.31;5034437;28;19952;-56
2021/12/27 10:32:39;;;;;;;;;;;;;;;16.11;89.57;100362.84;5033835;28;19921;-54
2021/12/27 10:35:07;;;;;;;;;;;;;;;16.37;88.86;100356.50;5034459;28;19964;-54
2021/12/27 10:37:49;;;;;;;;;;;;;;;16.37;88.12;100348.03;5034280;28;20015;-54
2021/12/27 10:40:16;;;;;;;;;;;;;;;16.37;87.65;100368.59;5034200;28;20016;-54
2021/12/27 10:42:45;;;;;;;;;;;;;;;16.35;87.51;100357.66;5033766;28;19921;-54
2021/12/27 10:45:19;;;;;;;;;;;;;;;16.38;87.85;100350.56;5033843;28;19932;-53
2021/12/27 10:47:53;;;;;;;;;;;;;;;16.40;87.60;100347.41;5033494;28;19928;-54
2021/12/27 10:50:28;;;;;;;;;;;;;;;16.38;87.66;100339.28;5033766;28;19928;-54
2021/12/27 10:53:00;;;;;;;;;;;;;;;16.55;87.56;100344.16;5033155;28;19930;-52
2021/12/27 10:55:38;;;;;;;;;;;;;;;16.65;87.11;100349.50;5033494;28;20376;-54
2021/12/27 10:58:08;;;;;;;;;;;;;;;16.68;87.33;100354.47;5033429;28;20025;-55
2021/12/27 11:00:35;;;;;;;;;;;;;;;16.66;86.58;100358.78;5033514;28;20004;-54
2021/12/27 11:03:02;;;;;;;;;;;;;;;16.64;86.36;100353.44;5052158;28;19927;-55
2021/12/27 11:05:31;;;;;;;;;;;;;;;16.68;86.21;100351.63;5053138;28;19928;-55
2021/12/27 11:08:00;;;;;;;;;;;;;;;16.80;86.19;100339.78;5051457;28;19983;-57
2021/12/27 11:10:31;;;;;;;;;;;;;;;17.09;86.25;100369.38;5033238;28;20016;-55
2021/12/27 11:12:59;;;;;;;;;;;;;;;17.17;85.29;100360.09;5034152;28;19925;-54
2021/12/27 11:15:29;;;;;;;;;;;;;;;16.99;84.13;100360.09;5033641;28;19932;-54
2021/12/27 11:17:57;;;;;;;;;;;;;;;16.84;84.56;100368.16;5032771;28;20055;-52
2021/12/27 11:20:25;;;;;;;;;;;;;;;16.72;85.12;100365.94;5033270;28;20456;-54
2021/12/27 11:22:54;;;;;;;;;;;;;;;16.65;84.29;100360.78;5033195;28;20008;-54
2021/12/27 11:25:29;;;;;;;;;;;;;;;16.61;84.68;100356.09;5038627;28;20011;-55
2021/12/27 11:27:56;;;;;;;;;;;;;;;16.56;84.54;100351.44;5032934;28;19969;-55
2021/12/27 11:30:25;;;;;;;;;;;;;;;16.46;84.37;100344.09;5033429;28;20015;-55
2021/12/27 11:33:04;;;;;;;;;;;;;;;16.35;83.47;100340.75;5032948;28;19968;-53
2021/12/27 11:35:35;;;;;;;;;;;;;;;16.27;84.33;100344.38;5033247;28;20241;-55
2021/12/27 11:38:02;;;;;;;;;;;;;;;16.32;84.27;100351.84;5033137;28;19963;-54
2021/12/27 11:40:47;;;;;;;;;;;;;;;16.32;84.35;100341.41;5038944;28;20032;-55
2021/12/27 11:43:14;;;;;;;;;;;;;;;16.32;83.93;100332.94;5052700;28;19921;-55
2021/12/27 11:45:45;;;;;;;;;;;;;;;16.30;84.29;100340.88;5052333;28;19921;-56
2021/12/27 11:48:25;;;;;;;;;;;;;;;16.26;84.50;100341.84;5037640;28;19925;-56
2021/12/27 11:51:03;;;;;;;;;;;;;;;16.26;84.34;100342.69;5032713;28;19968;-54
2021/12/27 11:53:44;;;;;;;;;;;;;;;16.38;84.36;100332.81;5040251;28;19921;-55
2021/12/27 11:56:15;;;;;;;;;;;;;;;16.45;83.83;100327.53;5045409;28;19960;-54
2021/12/27 11:58:44;;;;;;;;;;;;;;;16.51;83.40;100312.13;5032838;28;19927;-55
2021/12/27 12:01:21;;;;;;;;;;;;;;;16.56;83.68;100323.25;5032555;28;20353;-53
2021/12/27 12:03:50;;;;;;;;;;;;;;;16.54;83.62;100323.56;5032922;28;19925;-56
2021/12/27 12:06:34;;;;;;;;;;;;;;;16.62;83.71;100327.59;5034900;28;19967;-55
2021/12/27 12:09:08;;;;;;;;;;;;;;;16.87;83.34;100326.03;5052024;28;19924;-54
2021/12/27 12:11:35;;;;;;;;;;;;;;;16.87;83.02;100323.19;5052403;28;19964;-54
2021/12/27 12:14:20;;;;;;;;;;;;;;;16.70;82.35;100320.31;5052613;28;19960;-56
2021/12/27 12:16:47;;;;;;;;;;;;;;;16.52;82.80;100308.97;5032975;28;20015;-54
2021/12/27 12:19:14;;;;;;;;;;;;;;;16.42;83.05;100311.28;5032430;28;19964;-54
2021/12/27 12:21:52;;;;;;;;;;;;;;;16.44;83.08;100306.13;5032734;28;19921;-54
2021/12/27 12:24:21;;;;;;;;;;;;;;;16.55;83.67;100304.69;5042474;28;20015;-54
2021/12/27 12:26:59;;;;;;;;;;;;;;;16.99;83.01;100308.44;5051801;28;20019;-54
2021/12/27 12:29:46;;;;;;;;;;;;;;;16.97;82.50;100310.78;5052448;28;19920;-55
2021/12/27 12:32:13;;;;;;;;;;;;;;;16.94;82.58;100308.63;5050795;28;19960;-54
2021/12/27 12:34:41;;;;;;;;;;;;;;;16.93;82.94;100304.97;5052070;28;19950;-55
2021/12/27 12:37:09;;;;;;;;;;;;;;;17.01;82.48;100295.69;5051808;28;20392;-52
2021/12/27 12:39:38;;;;;;;;;;;;;;;17.18;83.11;100308.97;5040103;28;20024;-54
2021/12/27 12:42:32;;;;;;;;;;;;;;;17.59;81.99;100298.34;5032096;28;19999;-54
2021/12/27 12:44:59;;;;;;;;;;;;;;;17.55;81.35;100292.53;5031775;28;20016;-54
2021/12/27 12:47:38;;;;;;;;;;;;;;;17.39;81.20;100306.31;5031772;28;19921;-53